createdAt,value
2018-10-17T00:00:54.617Z,43.10
2018-10-17T00:03:27.269Z,40.77
2018-10-17T00:05:59.709Z,39.90
2018-10-17T00:08:32.122Z,35.60
2018-10-17T00:11:04.648Z,41.30
2018-10-17T00:13:37.136Z,38.83
2018-10-17T00:16:09.609Z,37.80
2018-10-17T00:18:42.101Z,31.60
2018-10-17T00:21:14.520Z,35.67
2018-10-17T00:23:47.017Z,34.40
2018-10-17T00:26:19.446Z,33.00
2018-10-17T00:28:51.987Z,34.70
2018-10-17T00:31:24.385Z,35.63
2018-10-17T00:33:57.497Z,33.20
2018-10-17T00:36:30.010Z,39.97
2018-10-17T00:39:02.545Z,33.07
2018-10-17T00:41:35.298Z,33.47
2018-10-17T00:44:07.762Z,32.60
2018-10-17T00:46:40.201Z,33.13
2018-10-17T00:49:12.756Z,34.60
2018-10-17T00:51:45.125Z,32.87
2018-10-17T00:54:17.644Z,34.33
2018-10-17T00:56:50.169Z,32.83
2018-10-17T00:59:22.656Z,32.87
2018-10-17T01:01:55.133Z,35.77
2018-10-17T01:04:27.569Z,32.63
2018-10-17T01:07:00.113Z,32.97
2018-10-17T01:09:32.502Z,31.13
2018-10-17T01:12:05.004Z,34.80
2018-10-17T01:15:40.506Z,32.83
2018-10-17T01:18:13.015Z,35.43
2018-10-17T01:20:45.406Z,34.17
2018-10-17T01:23:17.823Z,33.03
2018-10-17T01:25:50.229Z,30.33
2018-10-17T01:28:22.716Z,35.23
2018-10-17T01:30:55.194Z,31.57
2018-10-17T01:33:27.980Z,38.93
2018-10-17T01:36:01.586Z,29.90
2018-10-17T01:38:34.116Z,35.13
2018-10-17T01:41:06.539Z,30.93
2018-10-17T01:43:38.967Z,30.17
2018-10-17T01:46:11.436Z,38.93
2018-10-17T01:48:43.936Z,32.37
2018-10-17T01:51:16.410Z,35.97
2018-10-17T01:53:48.881Z,30.67
2018-10-17T01:56:21.395Z,29.90
2018-10-17T01:58:53.813Z,32.07
2018-10-17T02:01:26.436Z,31.60
2018-10-17T02:03:58.924Z,30.47
2018-10-17T02:06:31.385Z,33.07
2018-10-17T02:09:06.696Z,32.63
2018-10-17T02:11:39.161Z,32.53
2018-10-17T02:14:11.605Z,34.77
2018-10-17T02:16:44.154Z,33.40
2018-10-17T02:19:16.602Z,31.87
2018-10-17T02:21:49.078Z,31.60
2018-10-17T02:24:21.484Z,35.57
2018-10-17T02:26:53.941Z,31.73
2018-10-17T02:29:26.516Z,29.30
2018-10-17T02:31:58.979Z,34.10
2018-10-17T02:34:35.397Z,29.90
2018-10-17T02:37:09.269Z,39.37
2018-10-17T02:39:41.662Z,36.43
2018-10-17T02:42:14.048Z,33.87
2018-10-17T02:44:46.567Z,33.43
2018-10-17T02:47:19.016Z,32.50
2018-10-17T02:49:51.458Z,30.37
2018-10-17T02:52:23.858Z,35.60
2018-10-17T02:54:56.323Z,35.00
2018-10-17T02:57:28.802Z,36.17
2018-10-17T03:00:01.645Z,34.83
2018-10-17T03:02:34.374Z,33.33
2018-10-17T03:05:06.913Z,33.90
2018-10-17T03:07:39.345Z,33.30
2018-10-17T03:10:11.816Z,35.00
2018-10-17T03:13:47.346Z,35.17
2018-10-17T03:16:19.866Z,36.77
2018-10-17T03:18:52.355Z,31.27
2018-10-17T03:21:24.841Z,34.20
2018-10-17T03:23:57.325Z,33.23
2018-10-17T03:26:29.766Z,36.40
2018-10-17T03:29:02.241Z,37.27
2018-10-17T03:31:34.793Z,29.60
2018-10-17T03:34:07.243Z,30.37
2018-10-17T03:36:39.903Z,32.33
2018-10-17T03:39:13.970Z,35.50
2018-10-17T03:41:46.475Z,34.20
2018-10-17T03:44:18.945Z,33.93
2018-10-17T03:46:51.403Z,30.13
2018-10-17T03:49:23.857Z,34.17
2018-10-17T03:51:56.344Z,35.17
2018-10-17T03:54:28.902Z,31.07
2018-10-17T03:57:01.427Z,59.30
2018-10-17T03:59:34.141Z,30.67
2018-10-17T04:02:06.554Z,31.13
2018-10-17T04:04:39.151Z,31.47
2018-10-17T04:07:11.639Z,29.30
2018-10-17T04:09:44.349Z,36.60
2018-10-17T04:12:16.797Z,31.83
2018-10-17T04:14:49.294Z,38.33
2018-10-17T04:17:21.804Z,33.10
2018-10-17T04:19:55.788Z,28.63
2018-10-17T04:22:28.856Z,30.03
2018-10-17T04:25:01.405Z,33.77
2018-10-17T04:27:33.929Z,32.93
2018-10-17T04:30:07.324Z,30.10
2018-10-17T04:32:39.936Z,31.53
2018-10-17T04:35:12.456Z,35.50
2018-10-17T04:37:45.039Z,31.77
2018-10-17T04:40:17.709Z,33.23
2018-10-17T04:42:50.256Z,34.10
2018-10-17T04:45:22.703Z,28.93
2018-10-17T04:47:55.198Z,36.57
2018-10-17T04:50:27.710Z,31.23
2018-10-17T04:53:00.274Z,32.57
2018-10-17T04:55:32.814Z,33.47
2018-10-17T04:58:05.326Z,29.60
2018-10-17T05:00:38.026Z,30.53
2018-10-17T05:03:10.455Z,32.07
2018-10-17T05:05:43.202Z,32.90
2018-10-17T05:08:15.679Z,30.17
2018-10-17T05:10:48.153Z,34.30
2018-10-17T05:13:20.870Z,30.13
2018-10-17T05:15:53.318Z,31.03
2018-10-17T05:18:25.820Z,33.20
2018-10-17T05:20:59.482Z,32.07
2018-10-17T05:23:32.374Z,31.47
2018-10-17T05:26:05.184Z,29.40
2018-10-17T05:28:37.796Z,34.63
2018-10-17T05:31:10.469Z,32.47
2018-10-17T05:33:42.936Z,36.80
2018-10-17T05:36:15.520Z,27.57
2018-10-17T05:38:48.253Z,31.80
2018-10-17T05:41:21.774Z,33.53
2018-10-17T05:43:54.247Z,33.63
2018-10-17T05:46:26.717Z,30.50
2018-10-17T05:48:59.361Z,32.87
2018-10-17T05:51:31.936Z,31.37
2018-10-17T05:54:04.534Z,33.37
2018-10-17T05:56:37.010Z,36.00
2018-10-17T05:59:09.638Z,34.07
2018-10-17T06:01:42.384Z,34.77
2018-10-17T06:04:14.574Z,32.93
2018-10-17T06:06:47.111Z,35.37
2018-10-17T06:09:19.722Z,32.77
2018-10-17T06:11:52.172Z,37.53
2018-10-17T06:14:24.692Z,31.83
2018-10-17T06:16:57.141Z,33.53
2018-10-17T06:19:29.566Z,35.50
2018-10-17T06:22:02.401Z,36.73
2018-10-17T06:24:34.874Z,41.77
2018-10-17T06:27:07.367Z,33.97
2018-10-17T06:29:40.289Z,32.07
2018-10-17T06:32:12.725Z,39.50
2018-10-17T06:34:45.407Z,36.07
2018-10-17T06:37:17.915Z,31.43
2018-10-17T06:39:50.297Z,45.27
2018-10-17T06:42:23.928Z,40.17
2018-10-17T06:44:56.400Z,40.63
2018-10-17T06:47:29.014Z,42.13
2018-10-17T06:50:01.532Z,43.57
2018-10-17T06:52:34.267Z,49.13
2018-10-17T06:55:06.884Z,40.73
2018-10-17T06:57:39.410Z,38.53
2018-10-17T07:00:11.950Z,47.03
2018-10-17T07:02:44.520Z,42.73
2018-10-17T07:05:17.127Z,38.47
2018-10-17T07:07:49.535Z,48.23
2018-10-17T07:10:21.984Z,52.70
2018-10-17T07:12:54.543Z,41.37
2018-10-17T07:15:27.057Z,36.63
2018-10-17T07:17:59.405Z,48.13
2018-10-17T07:20:31.889Z,38.80
2018-10-17T07:23:04.723Z,40.47
2018-10-17T07:25:37.216Z,40.87
2018-10-17T07:28:09.761Z,41.10
2018-10-17T07:30:42.194Z,37.07
2018-10-17T07:33:14.695Z,38.30
2018-10-17T07:35:47.179Z,36.37
2018-10-17T07:38:19.944Z,43.13
2018-10-17T07:40:52.451Z,44.47
2018-10-17T07:43:25.313Z,40.60
2018-10-17T07:45:57.782Z,39.50
2018-10-17T07:48:30.443Z,46.13
2018-10-17T07:51:03.580Z,52.60
2018-10-17T07:53:36.153Z,39.57
2018-10-17T07:56:08.613Z,38.60
2018-10-17T07:58:41.090Z,38.57
2018-10-17T08:01:13.569Z,39.57
2018-10-17T08:03:46.300Z,41.57
2018-10-17T08:06:18.891Z,44.97
2018-10-17T08:08:51.291Z,40.00
2018-10-17T08:11:24.655Z,42.77
2018-10-17T08:13:57.252Z,60.67
2018-10-17T08:16:29.843Z,45.63
2018-10-17T08:19:02.420Z,43.83
2018-10-17T08:21:35.078Z,55.33
2018-10-17T08:24:08.658Z,46.23
2018-10-17T08:26:41.176Z,47.93
2018-10-17T08:29:14.145Z,43.63
2018-10-17T08:31:46.587Z,43.93
2018-10-17T08:34:19.185Z,49.70
2018-10-17T08:36:51.996Z,38.33
2018-10-17T08:39:24.335Z,35.00
2018-10-17T08:41:57.078Z,36.20
2018-10-17T08:44:29.646Z,36.80
2018-10-17T08:47:02.102Z,43.90
2018-10-17T08:49:34.594Z,39.77
2018-10-17T08:52:07.309Z,41.07
2018-10-17T08:54:39.726Z,40.97
2018-10-17T08:57:12.302Z,46.57
2018-10-17T08:59:45.107Z,38.93
2018-10-17T09:02:17.651Z,38.53
2018-10-17T09:04:50.392Z,46.03
2018-10-17T09:07:22.919Z,37.67
2018-10-17T09:09:55.389Z,44.27
2018-10-17T09:12:27.997Z,48.23
2018-10-17T09:15:00.521Z,59.00
2018-10-17T09:17:33.065Z,109.07
2018-10-17T09:20:06.810Z,72.37
2018-10-17T09:22:39.244Z,48.03
2018-10-17T09:25:11.936Z,44.63
2018-10-17T09:27:44.465Z,42.83
2018-10-17T09:30:16.980Z,56.20
2018-10-17T09:32:49.472Z,55.73
2018-10-17T09:35:22.054Z,59.30
2018-10-17T09:37:54.692Z,54.07
2018-10-17T09:40:27.144Z,51.07
2018-10-17T09:42:59.781Z,53.40
2018-10-17T09:45:32.342Z,44.33
2018-10-17T09:48:05.228Z,64.93
2018-10-17T09:50:37.729Z,54.87
2018-10-17T09:53:10.201Z,43.63
2018-10-17T09:55:42.667Z,44.43
2018-10-17T09:58:15.198Z,46.03
2018-10-17T10:00:53.398Z,45.33
2018-10-17T10:03:25.807Z,42.80
2018-10-17T10:05:59.802Z,48.87
2018-10-17T10:08:32.329Z,43.30
2018-10-17T10:11:05.616Z,67.10
2018-10-17T10:13:38.099Z,48.20
2018-10-17T10:16:10.695Z,46.43
2018-10-17T10:18:43.117Z,49.23
2018-10-17T10:21:15.593Z,46.50
2018-10-17T10:23:48.152Z,49.10
2018-10-17T10:26:20.924Z,39.43
2018-10-17T10:28:53.432Z,40.87
2018-10-17T10:31:26.178Z,43.67
2018-10-17T10:33:58.760Z,40.07
2018-10-17T10:36:31.178Z,35.67
2018-10-17T10:39:05.861Z,45.70
2018-10-17T10:41:38.725Z,47.90
2018-10-17T10:44:11.338Z,47.07
2018-10-17T10:46:45.163Z,44.10
2018-10-17T10:49:17.688Z,40.03
2018-10-17T10:51:50.095Z,40.23
2018-10-17T10:54:23.286Z,52.23
2018-10-17T10:56:56.843Z,44.47
2018-10-17T10:59:29.806Z,45.93
2018-10-17T11:02:02.374Z,42.73
2018-10-17T11:04:34.895Z,54.30
2018-10-17T11:07:07.441Z,48.87
2018-10-17T11:09:39.871Z,46.03
2018-10-17T11:12:12.305Z,59.47
2018-10-17T11:14:44.831Z,46.70
2018-10-17T11:17:17.423Z,38.53
2018-10-17T11:19:49.885Z,38.80
2018-10-17T11:22:22.672Z,39.00
2018-10-17T11:24:55.152Z,34.20
2018-10-17T11:27:27.736Z,41.27
2018-10-17T11:30:00.374Z,26.17
2018-10-17T11:32:32.869Z,29.07
2018-10-17T11:35:06.487Z,31.73
2018-10-17T11:37:39.049Z,25.67
2018-10-17T11:40:11.633Z,38.67
2018-10-17T11:42:44.168Z,35.13
2018-10-17T11:45:16.775Z,79.00
2018-10-17T11:47:49.294Z,38.07
2018-10-17T11:50:21.778Z,33.33
2018-10-17T11:52:54.239Z,28.80
2018-10-17T11:55:26.690Z,28.30
2018-10-17T11:57:59.106Z,31.97
2018-10-17T12:00:31.631Z,30.70
2018-10-17T12:03:04.185Z,25.53
2018-10-17T12:05:37.132Z,26.87
2018-10-17T12:08:10.626Z,26.20
2018-10-17T12:10:43.235Z,32.33
2018-10-17T12:13:16.043Z,29.57
2018-10-17T12:15:48.486Z,28.23
2018-10-17T12:18:20.996Z,36.43
2018-10-17T12:20:53.555Z,43.20
2018-10-17T12:23:25.997Z,30.87
2018-10-17T12:25:58.510Z,28.27
2018-10-17T12:28:31.197Z,30.00
2018-10-17T12:31:03.780Z,27.87
2018-10-17T12:33:36.378Z,30.17
2018-10-17T12:36:08.885Z,28.60
2018-10-17T12:38:41.402Z,26.63
2018-10-17T12:41:14.016Z,30.47
2018-10-17T12:43:46.462Z,26.87
2018-10-17T12:46:18.997Z,27.07
2018-10-17T12:48:51.810Z,31.63
2018-10-17T12:51:24.399Z,31.60
2018-10-17T12:53:56.982Z,31.53
2018-10-17T12:56:29.521Z,28.87
2018-10-17T12:59:02.044Z,24.97
2018-10-17T13:01:34.497Z,27.20
2018-10-17T13:04:06.949Z,25.27
2018-10-17T13:06:39.443Z,30.93
2018-10-17T13:09:12.581Z,37.43
2018-10-17T13:11:45.111Z,26.47
2018-10-17T13:14:17.602Z,35.17
2018-10-17T13:16:50.151Z,32.67
2018-10-17T13:19:23.039Z,23.00
2018-10-17T13:21:55.478Z,25.97
2018-10-17T13:24:28.006Z,24.33
2018-10-17T13:27:00.524Z,24.10
2018-10-17T13:29:33.030Z,30.63
2018-10-17T13:32:05.855Z,43.37
2018-10-17T13:34:38.337Z,26.87
2018-10-17T13:37:10.915Z,27.20
2018-10-17T13:39:43.415Z,28.40
2018-10-17T13:42:15.960Z,40.37
2018-10-17T13:44:48.388Z,30.67
2018-10-17T13:47:20.990Z,34.77
2018-10-17T13:49:55.231Z,39.33
2018-10-17T13:52:27.757Z,34.57
2018-10-17T13:55:00.247Z,32.20
2018-10-17T13:57:32.737Z,35.50
2018-10-17T14:00:06.726Z,35.40
2018-10-17T14:02:39.491Z,32.73
2018-10-17T14:05:12.123Z,25.70
2018-10-17T14:07:44.542Z,22.27
2018-10-17T14:10:17.121Z,22.17
2018-10-17T14:12:49.571Z,20.53
2018-10-17T14:15:22.025Z,26.17
2018-10-17T14:17:54.552Z,28.63
2018-10-17T14:20:27.200Z,29.40
2018-10-17T14:23:00.078Z,19.37
2018-10-17T14:25:33.233Z,22.70
2018-10-17T14:28:06.033Z,23.40
2018-10-17T14:30:38.593Z,23.20
2018-10-17T14:33:11.134Z,26.77
2018-10-17T14:35:43.636Z,23.47
2018-10-17T14:38:16.150Z,21.43
2018-10-17T14:40:48.591Z,24.07
2018-10-17T14:43:21.094Z,28.47
2018-10-17T14:45:53.477Z,22.97
2018-10-17T14:48:25.933Z,25.43
2018-10-17T14:50:58.513Z,32.30
2018-10-17T14:53:31.088Z,33.20
2018-10-17T14:56:03.695Z,32.00
2018-10-17T14:58:36.291Z,27.70
2018-10-17T15:01:08.780Z,27.57
2018-10-17T15:03:41.242Z,27.47
2018-10-17T15:06:13.727Z,25.47
2018-10-17T15:08:46.257Z,28.77
2018-10-17T15:11:18.971Z,25.17
2018-10-17T15:13:51.536Z,25.50
2018-10-17T15:16:24.060Z,23.87
2018-10-17T15:18:56.556Z,24.60
2018-10-17T15:21:29.059Z,27.03
2018-10-17T15:24:01.579Z,63.93
2018-10-17T15:26:34.051Z,34.77
2018-10-17T15:29:06.585Z,57.00
2018-10-17T15:31:39.206Z,37.37
2018-10-17T15:34:11.747Z,25.17
2018-10-17T15:36:44.263Z,35.83
2018-10-17T15:39:16.897Z,31.27
2018-10-17T15:41:49.376Z,28.07
2018-10-17T15:44:21.838Z,27.33
2018-10-17T15:46:54.307Z,29.40
2018-10-17T15:49:26.922Z,29.30
2018-10-17T15:51:59.414Z,31.13
2018-10-17T15:54:32.180Z,29.50
2018-10-17T15:57:05.031Z,28.57
2018-10-17T15:59:37.497Z,27.77
2018-10-17T16:02:10.045Z,29.23
2018-10-17T16:04:42.463Z,26.57
2018-10-17T16:07:14.935Z,30.90
2018-10-17T16:09:47.394Z,27.43
2018-10-17T16:12:20.946Z,27.57
2018-10-17T16:14:53.689Z,29.30
2018-10-17T16:17:26.149Z,28.40
2018-10-17T16:19:58.657Z,31.27
2018-10-17T16:22:31.125Z,29.77
2018-10-17T16:25:04.147Z,30.57
2018-10-17T16:27:36.861Z,31.23
2018-10-17T16:30:10.741Z,29.33
2018-10-17T16:32:43.323Z,33.17
2018-10-17T16:35:15.801Z,30.07
2018-10-17T16:37:48.303Z,33.93
2018-10-17T16:40:21.126Z,29.37
2018-10-17T16:42:53.723Z,34.33
2018-10-17T16:45:26.209Z,38.40
2018-10-17T16:47:58.723Z,40.77
2018-10-17T16:50:31.275Z,33.27
2018-10-17T16:53:03.813Z,37.70
2018-10-17T16:55:36.543Z,41.00
2018-10-17T16:58:09.148Z,34.10
2018-10-17T17:00:41.644Z,44.37
2018-10-17T17:03:14.169Z,42.27
2018-10-17T17:05:46.655Z,39.50
2018-10-17T17:08:19.146Z,45.07
2018-10-17T17:10:51.579Z,38.37
2018-10-17T17:13:24.069Z,38.30
2018-10-17T17:15:56.694Z,41.10
2018-10-17T17:18:29.120Z,39.87
2018-10-17T17:21:01.699Z,48.63
2018-10-17T17:23:34.172Z,39.90
2018-10-17T17:26:06.697Z,35.60
2018-10-17T17:28:39.175Z,39.30
2018-10-17T17:31:11.581Z,39.13
2018-10-17T17:33:44.094Z,43.30
2018-10-17T17:36:16.583Z,42.23
2018-10-17T17:38:49.842Z,46.47
2018-10-17T17:41:22.708Z,46.07
2018-10-17T17:43:55.177Z,40.60
2018-10-17T17:46:27.943Z,41.13
2018-10-17T17:49:00.500Z,48.27
2018-10-17T17:51:33.048Z,43.87
2018-10-17T17:54:05.695Z,41.03
2018-10-17T17:56:38.140Z,42.23
2018-10-17T17:59:10.706Z,45.10
2018-10-17T18:01:43.227Z,48.30
2018-10-17T18:04:15.987Z,50.47
2018-10-17T18:06:48.433Z,46.37
2018-10-17T18:09:21.138Z,45.00
2018-10-17T18:11:53.581Z,42.63
2018-10-17T18:14:26.217Z,39.67
2018-10-17T18:16:58.588Z,42.87
2018-10-17T18:19:31.170Z,39.30
2018-10-17T18:22:03.804Z,43.93
2018-10-17T18:24:36.247Z,43.57
2018-10-17T18:27:08.679Z,43.17
2018-10-17T18:29:41.093Z,47.90
2018-10-17T18:32:13.560Z,51.30
2018-10-17T18:34:46.084Z,43.00
2018-10-17T18:37:18.518Z,47.67
2018-10-17T18:39:51.137Z,43.00
2018-10-17T18:42:23.566Z,46.27
2018-10-17T18:44:56.025Z,42.93
2018-10-17T18:47:28.563Z,43.17
2018-10-17T18:50:01.047Z,43.60
2018-10-17T18:52:33.531Z,44.37
2018-10-17T18:55:07.395Z,44.53
2018-10-17T18:57:39.809Z,43.93
2018-10-17T19:00:12.384Z,50.27
2018-10-17T19:02:44.817Z,46.67
2018-10-17T19:05:17.394Z,42.03
2018-10-17T19:07:49.815Z,44.43
2018-10-17T19:10:22.270Z,46.60
2018-10-17T19:12:54.687Z,46.63
2018-10-17T19:15:27.253Z,47.83
2018-10-17T19:18:00.004Z,47.77
2018-10-17T19:20:32.479Z,48.13
2018-10-17T19:23:05.415Z,47.73
2018-10-17T19:25:37.896Z,46.30
2018-10-17T19:28:10.404Z,46.37
2018-10-17T19:30:42.938Z,48.30
2018-10-17T19:33:15.445Z,47.70
2018-10-17T19:35:47.900Z,49.33
2018-10-17T19:38:20.303Z,49.33
2018-10-17T19:40:52.962Z,50.77
2018-10-17T19:43:25.469Z,46.57
2018-10-17T19:45:57.947Z,50.10
2018-10-17T19:48:30.376Z,50.03
2018-10-17T19:51:03.921Z,53.23
2018-10-17T19:53:36.350Z,49.80
2018-10-17T19:56:08.911Z,54.20
2018-10-17T19:58:41.366Z,50.87
2018-10-17T20:01:14.290Z,53.83
2018-10-17T20:03:46.744Z,50.90
2018-10-17T20:06:19.240Z,47.50
2018-10-17T20:08:51.710Z,59.53
2018-10-17T20:11:24.310Z,51.40
2018-10-17T20:13:56.786Z,55.37
2018-10-17T20:16:29.301Z,54.90
2018-10-17T20:19:01.769Z,54.97
2018-10-17T20:21:34.241Z,57.47
2018-10-17T20:24:06.695Z,54.10
2018-10-17T20:26:39.164Z,57.47
2018-10-17T20:29:11.644Z,56.90
2018-10-17T20:31:44.085Z,58.87
2018-10-17T20:34:16.527Z,53.03
2018-10-17T20:36:49.022Z,50.07
2018-10-17T20:39:21.505Z,59.37
2018-10-17T20:41:53.929Z,58.70
2018-10-17T20:44:27.131Z,60.70
2018-10-17T20:46:59.537Z,55.10
2018-10-17T20:49:31.994Z,59.60
2018-10-17T20:52:04.516Z,55.30
2018-10-17T20:54:36.958Z,58.63
2018-10-17T20:57:09.511Z,57.13
2018-10-17T20:59:41.960Z,58.17
2018-10-17T21:02:14.439Z,55.60
2018-10-17T21:04:46.876Z,55.67
2018-10-17T21:07:19.308Z,55.43
2018-10-17T21:09:51.799Z,52.73
2018-10-17T21:12:24.199Z,56.80
2018-10-17T21:14:56.672Z,51.27
2018-10-17T21:17:29.145Z,54.57
2018-10-17T21:20:01.610Z,54.53
2018-10-17T21:22:34.174Z,58.47
2018-10-17T21:25:06.621Z,57.83
2018-10-17T21:27:39.584Z,52.33
2018-10-17T21:30:11.990Z,55.90
2018-10-17T21:32:44.484Z,55.80
2018-10-17T21:35:16.953Z,49.97
2018-10-17T21:37:50.531Z,52.57
2018-10-17T21:40:22.937Z,54.10
2018-10-17T21:42:55.384Z,50.93
2018-10-17T21:45:27.750Z,57.80
2018-10-17T21:48:00.182Z,52.23
2018-10-17T21:50:32.665Z,53.87
2018-10-17T21:53:05.424Z,54.10
2018-10-17T21:55:37.878Z,53.90
2018-10-17T21:58:10.356Z,54.43
2018-10-17T22:00:42.847Z,53.70
2018-10-17T22:03:15.537Z,49.87
2018-10-17T22:05:47.957Z,52.17
2018-10-17T22:08:20.410Z,48.37
2018-10-17T22:10:52.849Z,51.63
2018-10-17T22:13:25.602Z,47.80
2018-10-17T22:15:58.039Z,50.73
2018-10-17T22:18:30.602Z,51.73
2018-10-17T22:21:03.042Z,48.87
2018-10-17T22:23:35.466Z,55.10
2018-10-17T22:26:08.210Z,55.63
2018-10-17T22:28:40.568Z,53.20
2018-10-17T22:31:12.987Z,54.13
2018-10-17T22:33:45.452Z,46.20
2018-10-17T22:36:18.100Z,52.80
2018-10-17T22:38:50.546Z,49.00
2018-10-17T22:41:23.141Z,53.90
2018-10-17T22:43:55.580Z,47.83
2018-10-17T22:46:28.090Z,48.37
2018-10-17T22:49:00.595Z,47.37
2018-10-17T22:51:33.054Z,50.47
2018-10-17T22:54:06.198Z,49.10
2018-10-17T22:56:39.130Z,50.60
2018-10-17T22:59:11.591Z,48.67
2018-10-17T23:01:44.018Z,48.53
2018-10-17T23:04:16.411Z,48.07
2018-10-17T23:06:48.874Z,49.63
2018-10-17T23:09:21.267Z,55.40
2018-10-17T23:11:53.707Z,48.83
2018-10-17T23:14:26.338Z,49.17
2018-10-17T23:16:58.754Z,50.73
2018-10-17T23:19:31.238Z,53.23
2018-10-17T23:22:03.969Z,55.17
2018-10-17T23:24:36.386Z,51.60
2018-10-17T23:27:08.837Z,49.57
2018-10-17T23:29:41.229Z,49.73
2018-10-17T23:32:13.740Z,47.73
2018-10-17T23:34:46.163Z,54.30
2018-10-17T23:37:18.592Z,49.67
2018-10-17T23:39:52.350Z,52.67
2018-10-17T23:42:24.837Z,51.43
2018-10-17T23:44:57.224Z,56.03
2018-10-17T23:47:29.933Z,49.20
2018-10-17T23:50:02.450Z,53.00
2018-10-17T23:52:35.160Z,52.53
2018-10-17T23:55:07.937Z,53.77
2018-10-17T23:57:40.349Z,54.10
